createdAt,value
2022-12-05T00:01:27.001Z,264.60
2022-12-05T00:03:56.482Z,168.53
2022-12-05T00:06:27.478Z,230.23
2022-12-05T00:08:55.267Z,237.95
2022-12-05T00:11:25.921Z,222.77
2022-12-05T00:13:55.219Z,334.35
2022-12-05T00:16:25.325Z,442.60
2022-12-05T00:18:53.555Z,291.60
2022-12-05T00:21:24.488Z,376.60
2022-12-05T00:23:54.643Z,269.20
2022-12-05T00:26:23.151Z,350.17
2022-12-05T00:28:51.286Z,336.02
2022-12-05T00:31:22.451Z,181.15
2022-12-05T00:33:51.408Z,168.38
2022-12-05T00:36:22.127Z,154.90
2022-12-05T00:38:50.361Z,143.90
2022-12-05T00:41:22.206Z,152.32
2022-12-05T00:43:50.164Z,148.33
2022-12-05T00:46:20.868Z,141.65
2022-12-05T00:48:49.307Z,128.35
2022-12-05T00:51:20.341Z,135.63
2022-12-05T00:53:48.796Z,138.07
2022-12-05T00:56:21.236Z,125.25
2022-12-05T00:58:49.808Z,139.65
2022-12-05T01:01:21.681Z,126.47
2022-12-05T01:03:50.246Z,120.68
2022-12-05T01:06:18.559Z,117.53
2022-12-05T01:08:46.288Z,113.25
2022-12-05T01:11:17.120Z,117.18
2022-12-05T01:13:47.219Z,125.97
2022-12-05T01:16:16.896Z,123.57
2022-12-05T01:18:44.785Z,139.00
2022-12-05T01:21:13.361Z,142.15
2022-12-05T01:23:41.766Z,145.95
2022-12-05T01:26:12.669Z,143.20
2022-12-05T01:28:41.678Z,194.48
2022-12-05T01:31:17.816Z,144.88
2022-12-05T01:33:45.761Z,151.35
2022-12-05T01:36:14.228Z,149.60
2022-12-05T01:38:43.512Z,145.68
2022-12-05T01:41:14.615Z,144.52
2022-12-05T01:43:58.795Z,146.55
2022-12-05T01:46:30.212Z,145.27
2022-12-05T01:49:03.307Z,172.30
2022-12-05T01:51:33.421Z,116.95
2022-12-05T01:54:02.179Z,158.90
2022-12-05T01:56:32.690Z,139.23
2022-12-05T01:59:01.643Z,182.45
2022-12-05T02:01:31.121Z,195.88
2022-12-05T02:04:00.240Z,175.88
2022-12-05T02:06:29.592Z,169.93
2022-12-05T02:08:57.373Z,189.45
2022-12-05T02:11:29.797Z,184.05
2022-12-05T02:16:48.747Z,150.50
2022-12-05T02:19:43.848Z,203.13
2022-12-05T02:22:38.292Z,168.20
2022-12-05T02:25:37.591Z,197.68
2022-12-05T02:28:30.896Z,158.13
2022-12-05T02:31:06.623Z,238.52
2022-12-05T02:33:38.169Z,196.35
2022-12-05T02:36:11.326Z,235.00
2022-12-05T02:38:47.240Z,224.75
2022-12-05T02:41:22.198Z,393.17
2022-12-05T02:43:54.670Z,380.02
2022-12-05T02:46:26.671Z,215.30
2022-12-05T02:48:59.501Z,130.95
2022-12-05T02:51:32.762Z,208.90
2022-12-05T02:54:06.444Z,427.67
2022-12-05T02:56:36.810Z,503.75
2022-12-05T02:59:04.979Z,368.63
2022-12-05T03:01:34.278Z,460.02
2022-12-05T03:04:05.843Z,259.92
2022-12-05T03:06:38.053Z,312.35
2022-12-05T03:09:10.064Z,381.83
2022-12-05T03:11:41.023Z,389.17
2022-12-05T03:14:14.393Z,326.47
2022-12-05T03:16:48.314Z,481.83
2022-12-05T03:19:22.101Z,364.38
2022-12-05T03:21:54.983Z,306.60
2022-12-05T03:24:24.179Z,404.83
2022-12-05T03:27:02.107Z,170.52
2022-12-05T03:29:37.106Z,264.98
2022-12-05T03:32:11.792Z,246.07
2022-12-05T03:34:50.751Z,249.68
2022-12-05T03:37:26.393Z,337.10
2022-12-05T03:40:05.955Z,359.80
2022-12-05T03:42:36.271Z,331.17
2022-12-05T03:45:09.420Z,260.65
2022-12-05T03:47:47.045Z,278.63
2022-12-05T03:50:20.620Z,390.77
2022-12-05T03:53:18.787Z,208.15
2022-12-05T03:55:44.294Z,273.85
2022-12-05T03:58:18.748Z,368.15
2022-12-05T04:00:52.671Z,388.83
2022-12-05T04:03:27.955Z,358.65
2022-12-05T04:05:59.991Z,427.15
2022-12-05T04:08:33.102Z,399.10
2022-12-05T04:11:08.812Z,344.65
2022-12-05T04:13:40.720Z,238.65
2022-12-05T04:19:02.931Z,175.65
2022-12-05T04:21:38.787Z,159.68
2022-12-05T04:24:26.897Z,175.38
2022-12-05T04:27:04.978Z,177.57
2022-12-05T04:29:38.301Z,151.35
2022-12-05T04:32:11.402Z,137.85
2022-12-05T04:34:44.519Z,128.75
2022-12-05T04:37:19.533Z,124.70
2022-12-05T04:39:52.571Z,139.23
2022-12-05T04:42:25.942Z,183.40
2022-12-05T04:44:56.783Z,162.48
2022-12-05T04:47:28.507Z,199.40
2022-12-05T04:49:59.195Z,165.48
2022-12-05T04:52:29.962Z,265.67
2022-12-05T04:55:04.519Z,247.57
2022-12-05T04:57:37.644Z,166.15
2022-12-05T05:00:07.082Z,339.08
2022-12-05T05:02:41.576Z,304.63
2022-12-05T05:05:14.478Z,486.10
2022-12-05T05:07:47.233Z,499.67
2022-12-05T05:12:45.516Z,436.80
2022-12-05T05:15:13.330Z,238.55
2022-12-05T05:17:41.544Z,133.13
2022-12-05T05:20:27.189Z,195.25
2022-12-05T05:22:56.378Z,173.05
2022-12-05T05:25:25.851Z,208.68
2022-12-05T05:27:56.554Z,231.60
2022-12-05T05:30:25.404Z,273.02
2022-12-05T05:32:53.785Z,188.52
2022-12-05T05:35:23.277Z,180.15
2022-12-05T05:37:51.264Z,389.77
2022-12-05T05:40:19.631Z,284.70
2022-12-05T05:42:49.239Z,212.23
2022-12-05T05:45:17.609Z,268.15
2022-12-05T05:47:46.485Z,280.50
2022-12-05T05:50:20.940Z,379.02
2022-12-05T05:52:51.067Z,351.05
2022-12-05T05:55:19.233Z,456.40
2022-12-05T05:57:47.388Z,374.52
2022-12-05T06:00:16.406Z,393.63
2022-12-05T06:02:44.659Z,350.40
2022-12-05T06:05:12.644Z,228.02
2022-12-05T06:07:40.832Z,149.85
2022-12-05T06:10:10.708Z,119.18
2022-12-05T06:12:38.688Z,117.88
2022-12-05T06:15:08.076Z,106.28
2022-12-05T06:17:36.242Z,102.82
2022-12-05T06:20:04.609Z,134.38
2022-12-05T06:22:33.128Z,112.82
2022-12-05T06:25:01.043Z,105.05
2022-12-05T06:27:32.151Z,108.63
2022-12-05T06:30:00.411Z,124.57
2022-12-05T06:32:29.715Z,124.50
2022-12-05T06:34:57.649Z,142.50
2022-12-05T06:37:26.803Z,102.43
2022-12-05T06:39:54.736Z,174.77
2022-12-05T06:42:22.913Z,197.75
2022-12-05T06:44:52.127Z,250.95
2022-12-05T06:47:20.163Z,356.35
2022-12-05T06:49:47.951Z,159.85
2022-12-05T06:52:16.064Z,258.73
2022-12-05T06:54:43.815Z,266.63
2022-12-05T06:57:11.841Z,190.23
2022-12-05T06:59:39.913Z,258.45
2022-12-05T07:02:11.463Z,216.77
2022-12-05T07:04:39.661Z,164.63
2022-12-05T07:07:08.215Z,141.13
2022-12-05T07:09:48.689Z,223.20
2022-12-05T07:12:19.429Z,155.68
2022-12-05T07:14:49.261Z,136.38
2022-12-05T07:17:20.270Z,277.75
2022-12-05T07:19:50.052Z,199.90
2022-12-05T07:22:18.942Z,210.20
2022-12-05T07:24:47.306Z,234.15
2022-12-05T07:27:20.556Z,129.55
2022-12-05T07:29:52.168Z,138.73
2022-12-05T07:32:21.679Z,102.90
2022-12-05T07:34:54.782Z,149.77
2022-12-05T07:37:23.770Z,113.28
2022-12-05T07:39:53.631Z,124.45
2022-12-05T07:42:21.876Z,149.82
2022-12-05T07:44:49.942Z,133.15
2022-12-05T07:47:18.083Z,145.93
2022-12-05T07:49:47.224Z,118.28
2022-12-05T07:52:15.560Z,134.63
2022-12-05T07:54:43.274Z,143.50
2022-12-05T07:57:11.240Z,165.93
2022-12-05T07:59:39.284Z,296.95
2022-12-05T08:02:07.520Z,221.15
2022-12-05T08:04:35.376Z,277.02
2022-12-05T08:07:04.929Z,325.88
2022-12-05T08:09:32.667Z,345.95
2022-12-05T08:12:00.904Z,262.23
2022-12-05T08:14:29.200Z,349.48
2022-12-05T08:16:57.385Z,256.30
2022-12-05T08:19:25.215Z,367.25
2022-12-05T08:21:55.357Z,461.70
2022-12-05T08:24:25.103Z,207.57
2022-12-05T08:26:53.223Z,541.58
2022-12-05T08:29:23.315Z,407.10
2022-12-05T08:31:52.812Z,303.88
2022-12-05T08:34:22.035Z,424.30
2022-12-05T08:36:50.473Z,245.02
2022-12-05T08:39:20.531Z,224.93
2022-12-05T08:41:50.589Z,443.58
2022-12-05T08:44:18.971Z,199.63
2022-12-05T08:46:49.023Z,192.25
2022-12-05T08:49:18.240Z,357.15
2022-12-05T08:51:46.636Z,304.17
2022-12-05T08:54:14.816Z,357.13
2022-12-05T08:56:43.085Z,328.80
2022-12-05T08:59:12.371Z,343.00
2022-12-05T09:01:42.085Z,644.78
2022-12-05T09:04:10.368Z,516.25
2022-12-05T09:06:39.328Z,512.80
2022-12-05T09:09:11.345Z,383.42
2022-12-05T09:14:09.410Z,200.40
2022-12-05T09:16:40.010Z,303.40
2022-12-05T09:19:13.552Z,348.15
2022-12-05T09:21:42.338Z,535.25
2022-12-05T09:24:12.774Z,412.13
2022-12-05T09:26:42.148Z,356.70
2022-12-05T09:29:16.166Z,307.92
2022-12-05T09:31:48.402Z,292.48
2022-12-05T09:34:17.970Z,219.13
2022-12-05T09:36:49.592Z,358.73
2022-12-05T09:39:17.425Z,347.05
2022-12-05T09:42:10.158Z,376.25
2022-12-05T09:45:02.367Z,424.17
2022-12-05T09:47:47.324Z,311.60
2022-12-05T09:50:21.782Z,428.10
2022-12-05T09:53:01.201Z,425.92
2022-12-05T09:55:37.107Z,219.02
2022-12-05T09:58:12.602Z,178.50
2022-12-05T10:00:41.155Z,171.82
2022-12-05T10:03:22.662Z,278.48
2022-12-05T10:05:59.228Z,393.10
2022-12-05T10:08:33.782Z,371.08
2022-12-05T10:11:06.254Z,229.48
2022-12-05T10:13:49.510Z,288.92
2022-12-05T10:16:23.281Z,231.35
2022-12-05T10:18:58.390Z,164.38
2022-12-05T10:21:32.491Z,230.38
2022-12-05T10:24:03.392Z,180.85
2022-12-05T10:26:35.613Z,152.50
2022-12-05T10:29:13.596Z,134.32
2022-12-05T10:31:43.256Z,146.63
2022-12-05T10:34:17.777Z,191.82
2022-12-05T10:36:56.041Z,224.55
2022-12-05T10:39:24.681Z,190.55
2022-12-05T10:41:52.655Z,243.15
2022-12-05T10:44:20.866Z,197.45
2022-12-05T10:46:49.675Z,174.40
2022-12-05T10:49:20.450Z,159.82
2022-12-05T10:51:49.265Z,159.10
2022-12-05T10:54:21.861Z,256.73
2022-12-05T10:56:50.831Z,146.55
2022-12-05T10:59:21.305Z,210.35
2022-12-05T11:01:53.172Z,221.00
2022-12-05T11:06:57.440Z,146.43
2022-12-05T11:09:28.271Z,119.75
2022-12-05T11:12:07.420Z,112.03
2022-12-05T11:14:36.273Z,123.90
2022-12-05T11:17:06.241Z,110.43
2022-12-05T11:19:38.213Z,105.47
2022-12-05T11:22:07.944Z,113.40
2022-12-05T11:24:37.583Z,111.03
2022-12-05T11:27:21.756Z,116.85
2022-12-05T11:30:02.421Z,123.65
2022-12-05T11:32:32.086Z,114.03
2022-12-05T11:35:10.001Z,124.22
2022-12-05T11:37:45.573Z,157.93
2022-12-05T11:40:16.875Z,140.50
2022-12-05T11:43:02.915Z,198.45
2022-12-05T11:45:42.390Z,136.13
2022-12-05T11:48:23.723Z,102.32
2022-12-05T11:51:11.699Z,117.07
2022-12-05T11:54:03.510Z,186.80
2022-12-05T11:56:38.279Z,201.15
2022-12-05T11:59:38.280Z,142.18
2022-12-05T12:02:22.344Z,127.50
2022-12-05T12:05:01.005Z,187.68
2022-12-05T12:07:55.888Z,106.72
2022-12-05T12:10:32.343Z,101.68
2022-12-05T12:13:12.285Z,217.88
2022-12-05T12:15:52.180Z,156.88
2022-12-05T12:18:39.379Z,123.05
2022-12-05T12:21:18.810Z,105.45
2022-12-05T12:24:01.052Z,104.65
2022-12-05T12:26:42.518Z,99.57
2022-12-05T12:29:22.416Z,103.75
2022-12-05T12:32:09.327Z,110.22
2022-12-05T12:34:57.392Z,113.80
2022-12-05T12:37:35.780Z,110.18
2022-12-05T12:40:14.955Z,127.85
2022-12-05T12:42:54.031Z,111.65
2022-12-05T12:45:34.287Z,244.77
2022-12-05T12:48:16.527Z,113.15
2022-12-05T12:50:47.649Z,99.68
2022-12-05T12:53:41.173Z,97.03
2022-12-05T12:56:22.338Z,99.38
2022-12-05T12:58:55.427Z,94.15
2022-12-05T13:01:34.893Z,99.07
2022-12-05T13:04:12.573Z,107.38
2022-12-05T13:06:45.948Z,129.77
2022-12-05T13:09:20.257Z,102.47
2022-12-05T13:11:51.709Z,81.22
2022-12-05T13:14:25.299Z,79.60
2022-12-05T13:16:55.553Z,83.88
2022-12-05T13:19:30.875Z,90.65
2022-12-05T13:22:00.057Z,80.65
2022-12-05T13:24:29.595Z,80.03
2022-12-05T13:27:02.623Z,81.43
2022-12-05T13:29:34.317Z,85.80
2022-12-05T13:32:03.989Z,82.95
2022-12-05T13:34:45.831Z,81.50
2022-12-05T13:37:39.281Z,84.88
2022-12-05T13:40:40.049Z,82.05
2022-12-05T13:43:11.239Z,85.85
2022-12-05T13:45:40.507Z,88.53
2022-12-05T13:48:19.379Z,87.70
2022-12-05T13:50:53.579Z,72.40
2022-12-05T13:53:30.482Z,81.05
2022-12-05T13:56:01.584Z,82.50
2022-12-05T13:58:52.756Z,76.30
2022-12-05T14:01:53.812Z,73.03
2022-12-05T14:04:50.152Z,73.43
2022-12-05T14:07:42.009Z,70.70
2022-12-05T14:10:13.124Z,73.70
2022-12-05T14:12:50.307Z,117.82
2022-12-05T14:15:36.183Z,139.55
2022-12-05T14:18:15.602Z,147.77
2022-12-05T14:20:50.823Z,171.93
2022-12-05T14:23:33.378Z,156.85
2022-12-05T14:26:16.132Z,162.18
2022-12-05T14:28:56.683Z,142.02
2022-12-05T14:31:39.467Z,136.45
2022-12-05T14:34:17.862Z,131.25
2022-12-05T14:36:58.524Z,146.07
2022-12-05T14:39:40.542Z,137.13
2022-12-05T14:42:28.019Z,141.00
2022-12-05T14:44:59.293Z,140.15
2022-12-05T14:47:31.440Z,137.00
2022-12-05T14:50:04.272Z,136.45
2022-12-05T14:52:34.708Z,127.22
2022-12-05T14:55:09.463Z,128.73
2022-12-05T14:57:48.204Z,117.35
2022-12-05T15:00:22.410Z,126.30
2022-12-05T15:02:55.518Z,124.63
2022-12-05T15:05:28.489Z,123.75
2022-12-05T15:07:59.643Z,128.75
2022-12-05T15:10:30.568Z,120.05
2022-12-05T15:13:01.847Z,122.47
2022-12-05T15:15:37.146Z,120.57
2022-12-05T15:18:22.374Z,124.45
2022-12-05T15:20:58.143Z,121.75
2022-12-05T15:23:42.703Z,117.95
2022-12-05T15:29:14.364Z,158.30
2022-12-05T15:31:47.107Z,149.75
2022-12-05T15:34:22.719Z,150.85
2022-12-05T15:36:56.730Z,143.23
2022-12-05T15:39:28.480Z,128.27
2022-12-05T15:41:58.181Z,118.97
2022-12-05T15:44:35.907Z,120.22
2022-12-05T15:47:05.873Z,121.70
2022-12-05T15:49:36.068Z,136.15
2022-12-05T15:52:16.597Z,124.78
2022-12-05T15:54:45.690Z,125.20
2022-12-05T15:57:18.875Z,120.95
2022-12-05T15:59:51.857Z,116.60
2022-12-05T16:02:23.694Z,164.32
2022-12-05T16:04:57.643Z,124.25
2022-12-05T16:07:29.078Z,110.88
2022-12-05T16:10:00.271Z,122.53
2022-12-05T16:12:34.345Z,116.43
2022-12-05T16:15:05.610Z,117.05
2022-12-05T16:17:41.480Z,129.18
2022-12-05T16:20:23.766Z,120.70
2022-12-05T16:22:54.487Z,137.07
2022-12-05T16:25:26.202Z,121.97
2022-12-05T16:27:58.820Z,294.73
2022-12-05T16:30:27.931Z,286.05
2022-12-05T16:33:01.968Z,238.45
2022-12-05T16:35:35.484Z,218.70
2022-12-05T16:38:05.580Z,197.25
2022-12-05T16:40:34.267Z,204.32
2022-12-05T16:43:03.720Z,217.45
2022-12-05T16:45:40.935Z,200.15
2022-12-05T16:48:17.970Z,206.50
2022-12-05T16:50:48.152Z,241.77
2022-12-05T16:53:37.686Z,232.18
2022-12-05T16:56:07.080Z,217.32
2022-12-05T16:58:36.753Z,208.02
2022-12-05T17:01:07.326Z,203.25
2022-12-05T17:03:36.224Z,230.85
2022-12-05T17:06:06.699Z,270.33
2022-12-05T17:08:34.584Z,274.58
2022-12-05T17:11:03.655Z,291.02
2022-12-05T17:13:32.969Z,280.70
2022-12-05T17:16:01.156Z,275.88
2022-12-05T17:18:32.134Z,273.50
2022-12-05T17:21:02.978Z,253.43
2022-12-05T17:23:32.274Z,246.77
2022-12-05T17:26:00.720Z,224.05
2022-12-05T17:28:28.662Z,234.07
2022-12-05T17:30:57.198Z,234.00
2022-12-05T17:33:25.324Z,246.65
2022-12-05T17:35:53.642Z,251.02
2022-12-05T17:38:21.995Z,237.30
2022-12-05T17:40:51.617Z,259.88
2022-12-05T17:43:24.993Z,263.15
2022-12-05T17:45:54.672Z,283.70
2022-12-05T17:48:23.074Z,274.98
2022-12-05T17:50:51.370Z,277.75
2022-12-05T17:53:21.163Z,293.73
2022-12-05T17:55:50.944Z,287.73
2022-12-05T17:58:19.342Z,290.77
2022-12-05T18:00:48.530Z,308.92
2022-12-05T18:03:19.123Z,284.52
2022-12-05T18:05:47.975Z,290.00
2022-12-05T18:08:17.473Z,296.80
2022-12-05T18:10:48.212Z,278.02
2022-12-05T18:13:18.681Z,279.00
2022-12-05T18:15:49.171Z,284.67
2022-12-05T18:18:20.076Z,277.33
2022-12-05T18:20:48.360Z,280.53
2022-12-05T18:23:16.147Z,287.17
2022-12-05T18:25:44.464Z,273.27
2022-12-05T18:28:16.385Z,266.95
2022-12-05T18:30:49.041Z,199.65
2022-12-05T18:33:16.953Z,240.00
2022-12-05T18:35:45.056Z,264.77
2022-12-05T18:38:13.343Z,265.08
2022-12-05T18:40:42.031Z,223.85
2022-12-05T18:43:09.800Z,227.38
2022-12-05T18:45:37.982Z,165.13
2022-12-05T18:48:37.701Z,151.77
2022-12-05T18:50:55.611Z,216.48
2022-12-05T18:53:23.548Z,237.88
2022-12-05T18:56:13.735Z,247.73
2022-12-05T18:58:39.693Z,199.43
2022-12-05T19:01:09.626Z,198.40
2022-12-05T19:03:40.149Z,165.77
2022-12-05T19:06:16.154Z,156.75
2022-12-05T19:08:45.443Z,159.50
2022-12-05T19:11:16.043Z,157.40
2022-12-05T19:13:44.194Z,163.80
2022-12-05T19:16:16.772Z,174.75
2022-12-05T19:18:46.953Z,154.40
2022-12-05T19:21:15.015Z,251.05
2022-12-05T19:23:42.931Z,263.20
2022-12-05T19:26:11.311Z,263.23
2022-12-05T19:28:39.547Z,269.15
2022-12-05T19:31:09.450Z,273.58
2022-12-05T19:33:39.158Z,282.48
2022-12-05T19:36:11.461Z,286.25
2022-12-05T19:38:41.359Z,275.55
2022-12-05T19:41:11.403Z,288.05
2022-12-05T19:43:40.304Z,291.40
2022-12-05T19:46:11.845Z,289.55
2022-12-05T19:48:40.149Z,295.20
2022-12-05T19:51:09.983Z,284.75
2022-12-05T19:53:41.076Z,295.60
2022-12-05T19:56:14.088Z,298.80
2022-12-05T19:58:43.296Z,294.05
2022-12-05T20:01:13.272Z,305.50
2022-12-05T20:03:42.445Z,307.05
2022-12-05T20:06:12.202Z,286.27
2022-12-05T20:08:40.941Z,328.65
2022-12-05T20:11:11.644Z,319.20
2022-12-05T20:13:48.839Z,385.08
2022-12-05T20:16:18.835Z,450.70
2022-12-05T20:18:47.316Z,369.30
2022-12-05T20:21:18.633Z,316.08
2022-12-05T20:23:46.989Z,324.65
2022-12-05T20:26:16.877Z,297.65
2022-12-05T20:28:46.133Z,310.92
2022-12-05T20:31:16.603Z,326.55
2022-12-05T20:33:44.984Z,327.75
2022-12-05T20:36:14.832Z,335.08
2022-12-05T20:38:44.733Z,333.33
2022-12-05T20:41:15.382Z,298.00
2022-12-05T20:43:43.949Z,289.67
2022-12-05T20:46:14.808Z,299.55
2022-12-05T20:48:43.829Z,286.30
2022-12-05T20:51:13.959Z,294.17
2022-12-05T20:53:45.100Z,313.70
2022-12-05T20:56:16.299Z,322.27
2022-12-05T20:58:46.351Z,318.85
2022-12-05T21:01:15.709Z,318.95
2022-12-05T21:03:45.159Z,341.38
2022-12-05T21:06:15.030Z,306.10
2022-12-05T21:08:44.734Z,341.23
2022-12-05T21:11:14.200Z,450.25
2022-12-05T21:13:42.616Z,321.67
2022-12-05T21:16:13.401Z,344.23
2022-12-05T21:18:41.668Z,302.20
2022-12-05T21:21:15.524Z,296.33
2022-12-05T21:23:46.457Z,324.35
2022-12-05T21:26:17.603Z,317.40
2022-12-05T21:28:47.277Z,330.65
2022-12-05T21:31:17.932Z,330.05
2022-12-05T21:33:49.326Z,313.30
2022-12-05T21:36:18.657Z,378.73
2022-12-05T21:38:52.397Z,380.98
2022-12-05T21:41:23.919Z,379.50
2022-12-05T21:43:54.979Z,318.38
2022-12-05T21:46:24.065Z,301.40
2022-12-05T21:48:52.472Z,308.98
2022-12-05T21:51:21.062Z,307.98
2022-12-05T21:53:50.815Z,337.40
2022-12-05T21:56:22.712Z,335.23
2022-12-05T21:58:50.979Z,331.15
2022-12-05T22:01:22.679Z,326.48
2022-12-05T22:03:52.799Z,319.38
2022-12-05T22:06:21.048Z,384.88
2022-12-05T22:08:50.447Z,252.02
2022-12-05T22:11:20.421Z,367.08
2022-12-05T22:13:49.581Z,331.25
2022-12-05T22:16:19.022Z,348.25
2022-12-05T22:18:47.282Z,377.00
2022-12-05T22:21:17.363Z,399.73
2022-12-05T22:23:45.776Z,354.08
2022-12-05T22:26:18.071Z,380.25
2022-12-05T22:28:46.373Z,390.13
2022-12-05T22:31:16.769Z,366.65
2022-12-05T22:33:45.238Z,406.73
2022-12-05T22:36:14.704Z,388.52
2022-12-05T22:38:44.434Z,326.15
2022-12-05T22:41:15.785Z,367.02
2022-12-05T22:43:46.240Z,397.35
2022-12-05T22:46:17.480Z,380.15
2022-12-05T22:48:46.382Z,327.70
2022-12-05T22:51:15.589Z,353.15
2022-12-05T22:53:43.330Z,365.83
2022-12-05T22:56:13.347Z,361.08
2022-12-05T22:58:43.267Z,354.50
2022-12-05T23:01:13.800Z,356.70
2022-12-05T23:03:42.661Z,356.25
2022-12-05T23:06:12.616Z,361.15
2022-12-05T23:08:41.261Z,341.05
2022-12-05T23:11:10.395Z,350.83
2022-12-05T23:13:39.573Z,325.08
2022-12-05T23:16:11.416Z,315.08
2022-12-05T23:18:47.513Z,300.63
2022-12-05T23:21:20.380Z,373.95
2022-12-05T23:23:49.276Z,309.60
2022-12-05T23:26:20.359Z,333.70
2022-12-05T23:28:48.452Z,322.50
2022-12-05T23:31:18.518Z,340.23
2022-12-05T23:33:50.852Z,341.75
2022-12-05T23:36:20.419Z,337.45
2022-12-05T23:38:48.621Z,329.80
2022-12-05T23:41:18.559Z,329.65
2022-12-05T23:43:48.364Z,322.88
2022-12-05T23:46:19.519Z,324.63
2022-12-05T23:48:48.185Z,336.08
2022-12-05T23:51:18.569Z,380.30
2022-12-05T23:53:47.817Z,392.25
2022-12-05T23:56:17.878Z,372.60
2022-12-05T23:58:46.562Z,387.50
